createdAt,value
2023-02-19T00:01:36.785Z,8.30
2023-02-19T00:04:07.442Z,8.35
2023-02-19T00:06:36.063Z,7.77
2023-02-19T00:09:04.441Z,9.15
2023-02-19T00:11:33.570Z,8.20
2023-02-19T00:14:02.257Z,9.07
2023-02-19T00:16:39.014Z,9.13
2023-02-19T00:19:08.971Z,8.97
2023-02-19T00:21:36.133Z,6.63
2023-02-19T00:24:05.699Z,9.18
2023-02-19T00:26:33.770Z,7.68
2023-02-19T00:29:01.748Z,8.05
2023-02-19T00:31:34.404Z,6.30
2023-02-19T00:34:04.378Z,7.50
2023-02-19T00:36:33.045Z,7.40
2023-02-19T00:39:00.183Z,7.47
2023-02-19T00:41:29.092Z,7.38
2023-02-19T00:44:03.307Z,8.13
2023-02-19T00:46:33.580Z,8.57
2023-02-19T00:49:01.559Z,9.55
2023-02-19T00:51:31.252Z,8.73
2023-02-19T00:54:00.184Z,9.68
2023-02-19T00:56:28.064Z,8.97
2023-02-19T00:58:55.981Z,9.00
2023-02-19T01:01:23.184Z,10.18
2023-02-19T01:03:51.610Z,9.00
2023-02-19T01:06:20.634Z,8.85
2023-02-19T01:08:48.147Z,9.30
2023-02-19T01:11:16.685Z,10.23
2023-02-19T01:13:44.544Z,7.50
2023-02-19T01:16:15.867Z,8.68
2023-02-19T01:18:43.468Z,9.27
2023-02-19T01:21:16.354Z,9.73
2023-02-19T01:23:44.324Z,7.93
2023-02-19T01:26:17.826Z,8.23
2023-02-19T01:28:45.780Z,9.32
2023-02-19T01:31:16.254Z,9.85
2023-02-19T01:33:48.245Z,8.17
2023-02-19T01:36:16.778Z,7.28
2023-02-19T01:38:44.309Z,7.65
2023-02-19T01:41:14.822Z,9.35
2023-02-19T01:44:12.377Z,9.23
2023-02-19T01:46:41.728Z,8.27
2023-02-19T01:49:21.291Z,8.73
2023-02-19T01:51:54.468Z,9.20
2023-02-19T01:54:25.154Z,7.70
2023-02-19T01:56:52.704Z,8.57
2023-02-19T01:59:19.923Z,9.93
2023-02-19T02:01:47.223Z,8.07
2023-02-19T02:04:16.252Z,9.95
2023-02-19T02:06:54.352Z,9.43
2023-02-19T02:09:44.270Z,6.72
2023-02-19T02:12:12.845Z,8.53
2023-02-19T02:14:45.241Z,9.18
2023-02-19T02:17:39.661Z,6.72
2023-02-19T02:20:24.902Z,7.95
2023-02-19T02:23:12.405Z,7.95
2023-02-19T02:26:00.172Z,8.83
2023-02-19T02:28:37.146Z,8.57
2023-02-19T02:31:15.418Z,7.68
2023-02-19T02:33:53.352Z,7.50
2023-02-19T02:36:24.830Z,5.95
2023-02-19T02:38:54.327Z,9.43
2023-02-19T02:41:23.648Z,8.88
2023-02-19T02:43:50.723Z,8.15
2023-02-19T02:46:34.258Z,7.95
2023-02-19T02:49:19.048Z,6.97
2023-02-19T02:51:51.041Z,6.73
2023-02-19T02:54:47.909Z,7.60
2023-02-19T02:57:19.129Z,6.95
2023-02-19T02:59:53.745Z,8.10
2023-02-19T03:02:31.231Z,9.00
2023-02-19T03:05:41.500Z,7.33
2023-02-19T03:08:19.992Z,8.00
2023-02-19T03:10:56.140Z,7.68
2023-02-19T03:13:51.194Z,8.57
2023-02-19T03:16:42.897Z,8.25
2023-02-19T03:19:20.065Z,6.93
2023-02-19T03:21:53.711Z,8.18
2023-02-19T03:24:49.641Z,7.47
2023-02-19T03:27:20.653Z,7.70
2023-02-19T03:29:54.948Z,7.75
2023-02-19T03:32:49.546Z,6.93
2023-02-19T03:35:24.710Z,6.68
2023-02-19T03:38:23.629Z,6.78
2023-02-19T03:41:16.914Z,7.35
2023-02-19T03:43:58.492Z,6.60
2023-02-19T03:46:30.114Z,8.80
2023-02-19T03:49:04.870Z,7.35
2023-02-19T03:51:39.948Z,6.82
2023-02-19T03:54:19.350Z,7.93
2023-02-19T03:56:46.360Z,8.45
2023-02-19T03:59:39.353Z,6.93
2023-02-19T04:02:12.871Z,7.75
2023-02-19T04:04:45.793Z,6.85
2023-02-19T04:07:13.564Z,8.02
2023-02-19T04:09:48.979Z,5.97
2023-02-19T04:12:21.343Z,8.20
2023-02-19T04:15:00.963Z,8.23
2023-02-19T04:17:52.962Z,6.88
2023-02-19T04:20:22.498Z,6.50
2023-02-19T04:22:50.168Z,7.78
2023-02-19T04:25:17.492Z,6.93
2023-02-19T04:27:46.168Z,7.00
2023-02-19T04:30:14.315Z,9.00
2023-02-19T04:32:41.522Z,6.65
2023-02-19T04:35:08.839Z,8.95
2023-02-19T04:37:48.693Z,7.47
2023-02-19T04:40:16.228Z,7.82
2023-02-19T04:42:43.250Z,6.20
2023-02-19T04:45:10.306Z,7.53
2023-02-19T04:47:37.256Z,7.75
2023-02-19T04:50:24.023Z,6.80
2023-02-19T04:52:51.089Z,7.55
2023-02-19T04:55:18.660Z,8.98
2023-02-19T04:57:45.968Z,7.90
2023-02-19T05:00:13.969Z,5.80
2023-02-19T05:02:41.054Z,8.13
2023-02-19T05:05:08.363Z,8.15
2023-02-19T05:07:35.378Z,6.72
2023-02-19T05:10:02.391Z,7.55
2023-02-19T05:12:31.406Z,8.00
2023-02-19T05:14:59.269Z,6.17
2023-02-19T05:17:26.210Z,4.60
2023-02-19T05:19:53.225Z,7.07
2023-02-19T05:22:20.211Z,7.07
2023-02-19T05:24:55.962Z,7.20
2023-02-19T05:27:26.187Z,7.87
2023-02-19T05:29:53.175Z,6.70
2023-02-19T05:32:20.172Z,7.75
2023-02-19T05:34:47.246Z,8.45
2023-02-19T05:37:14.242Z,8.15
2023-02-19T05:39:41.214Z,7.97
2023-02-19T05:42:08.191Z,5.43
2023-02-19T05:44:35.153Z,6.40
2023-02-19T05:47:02.179Z,6.53
2023-02-19T05:49:29.198Z,7.25
2023-02-19T05:51:56.120Z,6.73
2023-02-19T05:54:23.132Z,8.13
2023-02-19T05:56:50.178Z,7.85
2023-02-19T05:59:22.366Z,7.47
2023-02-19T06:01:51.499Z,7.97
2023-02-19T06:04:20.500Z,7.27
2023-02-19T06:06:48.208Z,7.13
2023-02-19T06:09:15.305Z,6.75
2023-02-19T06:11:43.723Z,6.88
2023-02-19T06:14:13.127Z,7.18
2023-02-19T06:16:40.324Z,5.70
2023-02-19T06:19:07.381Z,8.27
2023-02-19T06:21:34.526Z,7.30
2023-02-19T06:24:08.587Z,7.82
2023-02-19T06:26:35.940Z,6.88
2023-02-19T06:29:03.096Z,7.20
2023-02-19T06:31:30.277Z,6.97
2023-02-19T06:33:57.368Z,8.25
2023-02-19T06:36:24.621Z,7.00
2023-02-19T06:38:52.171Z,7.43
2023-02-19T06:41:19.806Z,7.60
2023-02-19T06:43:46.983Z,6.28
2023-02-19T06:46:14.510Z,5.45
2023-02-19T06:48:43.599Z,7.00
2023-02-19T06:51:19.631Z,7.22
2023-02-19T06:53:46.932Z,6.53
2023-02-19T06:56:53.819Z,7.90
2023-02-19T06:59:35.609Z,6.60
2023-02-19T07:02:31.289Z,6.25
2023-02-19T07:08:15.081Z,7.40
2023-02-19T07:10:49.099Z,8.40
2023-02-19T07:13:29.681Z,9.23
2023-02-19T07:16:04.510Z,8.15
2023-02-19T07:18:44.119Z,7.85
2023-02-19T07:21:41.640Z,6.57
2023-02-19T07:24:24.484Z,5.50
2023-02-19T07:26:57.856Z,7.63
2023-02-19T07:29:28.123Z,6.97
2023-02-19T07:32:05.608Z,5.22
2023-02-19T07:34:33.607Z,7.00
2023-02-19T07:37:03.166Z,6.10
2023-02-19T07:39:32.564Z,6.30
2023-02-19T07:42:09.542Z,7.68
2023-02-19T07:44:40.553Z,6.35
2023-02-19T07:47:20.915Z,7.27
2023-02-19T07:50:07.765Z,7.95
2023-02-19T07:52:48.109Z,8.43
2023-02-19T07:55:27.400Z,7.50
2023-02-19T08:01:21.152Z,6.73
2023-02-19T08:07:28.389Z,7.05
2023-02-19T08:13:53.105Z,6.55
2023-02-19T08:16:57.572Z,5.67
2023-02-19T08:20:14.430Z,7.53
2023-02-19T08:28:57.384Z,7.13
2023-02-19T08:35:29.545Z,6.90
2023-02-19T08:38:30.954Z,7.68
2023-02-19T08:41:46.412Z,7.63
2023-02-19T08:45:03.732Z,7.13
2023-02-19T08:48:34.666Z,6.63
2023-02-19T08:51:47.420Z,7.37
2023-02-19T08:56:25.703Z,6.43
2023-02-19T08:59:47.842Z,6.50
2023-02-19T09:03:03.625Z,7.50
2023-02-19T09:09:58.552Z,6.50
2023-02-19T09:12:52.579Z,7.03
2023-02-19T09:16:04.169Z,7.65
2023-02-19T09:19:09.808Z,8.05
2023-02-19T09:22:13.240Z,6.45
2023-02-19T09:25:45.472Z,6.10
2023-02-19T09:29:06.166Z,9.50
2023-02-19T09:31:59.278Z,7.20
2023-02-19T09:35:03.095Z,7.13
2023-02-19T09:42:05.003Z,7.47
2023-02-19T09:45:23.663Z,7.70
2023-02-19T09:48:16.665Z,9.13
2023-02-19T09:50:47.817Z,7.97
2023-02-19T09:53:21.233Z,7.82
2023-02-19T09:55:48.796Z,7.73
2023-02-19T09:58:33.510Z,9.13
2023-02-19T10:01:03.502Z,8.70
2023-02-19T10:03:34.531Z,8.35
2023-02-19T10:06:24.870Z,8.75
2023-02-19T10:08:55.971Z,9.53
2023-02-19T10:11:26.495Z,6.18
2023-02-19T10:14:09.433Z,7.68
2023-02-19T10:16:41.138Z,7.32
2023-02-19T10:19:13.013Z,7.88
2023-02-19T10:21:41.963Z,8.23
2023-02-19T10:24:20.713Z,7.72
2023-02-19T10:26:48.132Z,9.20
2023-02-19T10:29:15.122Z,9.43
2023-02-19T10:31:42.262Z,8.23
2023-02-19T10:34:20.734Z,8.33
2023-02-19T10:36:51.087Z,8.85
2023-02-19T10:39:39.639Z,8.20
2023-02-19T10:42:13.732Z,7.60
2023-02-19T10:44:44.972Z,6.50
2023-02-19T10:47:18.645Z,7.03
2023-02-19T10:49:48.861Z,8.95
2023-02-19T10:52:18.569Z,9.38
2023-02-19T10:54:46.854Z,7.13
2023-02-19T10:57:19.705Z,8.60
2023-02-19T10:59:57.773Z,10.30
2023-02-19T11:02:25.957Z,7.93
2023-02-19T11:05:17.142Z,9.18
2023-02-19T11:07:57.869Z,8.23
2023-02-19T11:10:38.735Z,9.00
2023-02-19T11:13:08.114Z,8.90
2023-02-19T11:15:37.540Z,6.80
2023-02-19T11:18:18.912Z,8.00
2023-02-19T11:20:56.050Z,9.30
2023-02-19T11:23:34.381Z,8.60
2023-02-19T11:26:06.688Z,7.37
2023-02-19T11:28:39.846Z,8.32
2023-02-19T11:31:32.146Z,6.90
2023-02-19T11:34:01.898Z,7.07
2023-02-19T11:36:34.659Z,8.75
2023-02-19T11:39:17.013Z,8.67
2023-02-19T11:41:50.201Z,8.00
2023-02-19T11:44:26.172Z,8.60
2023-02-19T11:47:01.256Z,8.02
2023-02-19T11:50:03.768Z,7.60
2023-02-19T11:52:36.407Z,8.40
2023-02-19T11:55:15.620Z,7.68
2023-02-19T11:57:54.318Z,9.68
2023-02-19T12:00:28.570Z,7.95
2023-02-19T12:03:17.867Z,8.52
2023-02-19T12:06:06.466Z,8.23
2023-02-19T12:08:36.392Z,8.70
2023-02-19T12:11:16.412Z,9.68
2023-02-19T12:14:28.213Z,6.22
2023-02-19T12:17:29.101Z,9.05
2023-02-19T12:20:33.016Z,9.20
2023-02-19T12:23:45.212Z,8.35
2023-02-19T12:26:24.280Z,7.47
2023-02-19T12:29:13.336Z,8.65
2023-02-19T12:31:43.349Z,9.32
2023-02-19T12:34:25.554Z,9.87
2023-02-19T12:37:11.273Z,8.80
2023-02-19T12:40:15.951Z,8.48
2023-02-19T12:42:45.572Z,8.80
2023-02-19T12:46:03.591Z,8.15
2023-02-19T12:48:46.486Z,8.63
2023-02-19T12:51:46.562Z,8.95
2023-02-19T12:54:19.439Z,7.70
2023-02-19T12:57:03.014Z,8.77
2023-02-19T12:59:39.486Z,8.98
2023-02-19T13:02:16.724Z,9.07
2023-02-19T13:04:46.808Z,8.23
2023-02-19T13:07:16.827Z,9.70
2023-02-19T13:10:22.869Z,9.10
2023-02-19T13:12:51.649Z,8.68
2023-02-19T13:15:37.878Z,9.00
2023-02-19T13:18:16.483Z,9.55
2023-02-19T13:20:46.693Z,9.50
2023-02-19T13:23:42.497Z,9.50
2023-02-19T13:26:31.423Z,10.18
2023-02-19T13:29:16.731Z,9.33
2023-02-19T13:31:49.588Z,8.68
2023-02-19T13:34:16.680Z,8.93
2023-02-19T13:36:44.214Z,10.80
2023-02-19T13:39:29.253Z,8.45
2023-02-19T13:41:59.419Z,9.30
2023-02-19T13:44:32.686Z,10.10
2023-02-19T13:47:00.911Z,8.95
2023-02-19T13:49:27.926Z,7.05
2023-02-19T13:52:30.231Z,8.98
2023-02-19T13:55:35.329Z,9.90
2023-02-19T13:58:33.518Z,9.52
2023-02-19T14:01:11.877Z,8.88
2023-02-19T14:03:53.369Z,9.00
2023-02-19T14:06:28.770Z,9.05
2023-02-19T14:09:00.651Z,8.00
2023-02-19T14:11:48.194Z,8.45
2023-02-19T14:14:38.943Z,9.30
2023-02-19T14:17:09.010Z,8.18
2023-02-19T14:19:41.851Z,8.98
2023-02-19T14:22:58.158Z,9.73
2023-02-19T14:25:31.461Z,9.10
2023-02-19T14:28:22.017Z,8.18
2023-02-19T14:31:01.313Z,9.05
2023-02-19T14:33:32.744Z,10.43
2023-02-19T14:36:18.834Z,9.23
2023-02-19T14:38:54.975Z,9.60
2023-02-19T14:41:27.097Z,8.40
2023-02-19T14:43:58.713Z,11.13
2023-02-19T14:46:37.602Z,9.95
2023-02-19T14:49:22.056Z,8.07
2023-02-19T14:52:20.223Z,9.70
2023-02-19T14:55:15.538Z,7.20
2023-02-19T14:57:49.082Z,9.57
2023-02-19T15:00:36.140Z,9.27
2023-02-19T15:03:24.998Z,6.83
2023-02-19T15:06:08.943Z,9.18
2023-02-19T15:08:44.191Z,9.55
2023-02-19T15:11:17.608Z,9.27
2023-02-19T15:13:51.626Z,8.40
2023-02-19T15:16:21.598Z,10.03
2023-02-19T15:18:50.540Z,9.98
2023-02-19T15:21:27.418Z,9.68
2023-02-19T15:23:58.478Z,9.98
2023-02-19T15:26:36.224Z,8.88
2023-02-19T15:29:27.838Z,9.87
2023-02-19T15:31:59.116Z,9.13
2023-02-19T15:34:32.291Z,10.57
2023-02-19T15:37:08.331Z,8.57
2023-02-19T15:39:43.731Z,9.35
2023-02-19T15:42:17.990Z,9.57
2023-02-19T15:44:54.112Z,9.65
2023-02-19T15:47:29.680Z,10.07
2023-02-19T15:50:08.494Z,8.15
2023-02-19T15:52:45.537Z,8.50
2023-02-19T15:55:38.046Z,9.00
2023-02-19T15:58:30.375Z,8.68
2023-02-19T16:01:06.522Z,10.02
2023-02-19T16:03:37.526Z,7.55
2023-02-19T16:06:15.744Z,10.50
2023-02-19T16:08:53.178Z,11.47
2023-02-19T16:11:28.105Z,8.25
2023-02-19T16:14:18.578Z,9.35
2023-02-19T16:16:49.400Z,8.07
2023-02-19T16:19:32.717Z,9.52
2023-02-19T16:22:01.367Z,9.70
2023-02-19T16:24:34.783Z,10.73
2023-02-19T16:27:05.324Z,11.25
2023-02-19T16:29:37.533Z,9.93
2023-02-19T16:32:07.671Z,11.10
2023-02-19T16:34:40.852Z,10.73
2023-02-19T16:37:44.252Z,9.50
2023-02-19T16:40:16.607Z,10.40
2023-02-19T16:42:49.853Z,9.88
2023-02-19T16:45:17.931Z,11.35
2023-02-19T16:47:48.589Z,9.97
2023-02-19T16:50:24.056Z,10.98
2023-02-19T16:52:57.127Z,11.57
2023-02-19T16:55:24.573Z,10.77
2023-02-19T16:57:52.199Z,10.85
2023-02-19T17:00:25.383Z,11.13
2023-02-19T17:02:55.812Z,10.77
2023-02-19T17:05:25.602Z,11.30
2023-02-19T17:07:53.007Z,10.80
2023-02-19T17:10:25.052Z,11.15
2023-02-19T17:12:53.737Z,9.47
2023-02-19T17:15:21.592Z,10.68
2023-02-19T17:17:48.732Z,11.52
2023-02-19T17:20:24.319Z,12.20
2023-02-19T17:22:51.596Z,11.27
2023-02-19T17:25:18.644Z,9.67
2023-02-19T17:27:45.602Z,9.63
2023-02-19T17:30:31.799Z,10.98
2023-02-19T17:33:00.860Z,10.90
2023-02-19T17:35:28.420Z,10.75
2023-02-19T17:37:57.033Z,10.47
2023-02-19T17:40:33.551Z,10.85
2023-02-19T17:43:01.894Z,11.27
2023-02-19T17:45:29.733Z,11.43
2023-02-19T17:47:57.091Z,12.18
2023-02-19T17:50:28.056Z,11.80
2023-02-19T17:52:55.532Z,10.77
2023-02-19T17:55:22.956Z,11.85
2023-02-19T17:57:52.225Z,12.40
2023-02-19T18:00:28.991Z,13.35
2023-02-19T18:02:56.568Z,10.90
2023-02-19T18:05:24.772Z,10.63
2023-02-19T18:07:52.101Z,11.45
2023-02-19T18:10:21.089Z,12.05
2023-02-19T18:12:49.087Z,11.43
2023-02-19T18:15:22.116Z,10.43
2023-02-19T18:17:49.371Z,12.05
2023-02-19T18:20:18.250Z,12.60
2023-02-19T18:22:45.355Z,10.13
2023-02-19T18:25:12.506Z,12.10
2023-02-19T18:27:40.334Z,11.07
2023-02-19T18:30:08.861Z,11.95
2023-02-19T18:32:36.552Z,11.55
2023-02-19T18:35:04.798Z,12.82
2023-02-19T18:37:33.964Z,11.10
2023-02-19T18:40:01.690Z,12.43
2023-02-19T18:42:30.885Z,13.02
2023-02-19T18:44:58.220Z,12.10
2023-02-19T18:47:25.865Z,10.93
2023-02-19T18:49:58.459Z,11.20
2023-02-19T18:52:27.322Z,12.50
2023-02-19T18:54:55.855Z,12.43
2023-02-19T18:57:24.670Z,12.43
2023-02-19T18:59:51.667Z,10.98
2023-02-19T19:02:19.476Z,12.27
2023-02-19T19:04:57.364Z,12.15
2023-02-19T19:07:24.509Z,11.90
2023-02-19T19:09:51.689Z,11.73
2023-02-19T19:12:19.364Z,12.55
2023-02-19T19:14:46.598Z,13.10
2023-02-19T19:17:13.923Z,11.90
2023-02-19T19:19:45.679Z,11.32
2023-02-19T19:22:13.216Z,10.90
2023-02-19T19:24:40.453Z,12.27
2023-02-19T19:27:07.580Z,10.60
2023-02-19T19:29:34.952Z,12.02
2023-02-19T19:32:02.623Z,13.20
2023-02-19T19:34:30.024Z,11.23
2023-02-19T19:36:57.045Z,10.80
2023-02-19T19:39:24.140Z,11.83
2023-02-19T19:41:57.820Z,11.98
2023-02-19T19:44:24.927Z,9.75
2023-02-19T19:46:52.214Z,12.73
2023-02-19T19:49:21.141Z,12.60
2023-02-19T19:51:48.855Z,11.90
2023-02-19T19:54:16.635Z,11.77
2023-02-19T19:56:46.437Z,12.32
2023-02-19T19:59:15.362Z,10.98
2023-02-19T20:01:53.139Z,12.00
2023-02-19T20:04:22.267Z,11.50
2023-02-19T20:06:49.763Z,11.40
2023-02-19T20:09:18.227Z,10.75
2023-02-19T20:11:47.253Z,10.45
2023-02-19T20:14:15.187Z,10.77
2023-02-19T20:16:44.642Z,12.47
2023-02-19T20:19:12.257Z,12.18
2023-02-19T20:21:39.255Z,11.48
2023-02-19T20:24:06.602Z,13.48
2023-02-19T20:26:33.593Z,12.77
2023-02-19T20:29:00.918Z,12.03
2023-02-19T20:31:28.187Z,11.40
2023-02-19T20:33:55.773Z,13.07
2023-02-19T20:36:22.854Z,13.32
2023-02-19T20:38:50.420Z,13.23
2023-02-19T20:41:17.436Z,13.20
2023-02-19T20:43:44.387Z,13.10
2023-02-19T20:46:12.246Z,13.55
2023-02-19T20:48:39.767Z,12.63
2023-02-19T20:51:06.807Z,12.90
2023-02-19T20:53:33.980Z,13.00
2023-02-19T20:56:01.144Z,14.18
2023-02-19T20:58:28.162Z,14.32
2023-02-19T21:00:55.935Z,14.00
2023-02-19T21:03:23.026Z,14.65
2023-02-19T21:05:50.178Z,12.33
2023-02-19T21:08:17.549Z,12.82
2023-02-19T21:10:46.376Z,12.88
2023-02-19T21:13:13.791Z,13.70
2023-02-19T21:15:41.076Z,13.77
2023-02-19T21:18:08.206Z,11.47
2023-02-19T21:20:35.258Z,12.55
2023-02-19T21:23:02.388Z,12.68
2023-02-19T21:25:31.556Z,13.63
2023-02-19T21:27:58.912Z,13.45
2023-02-19T21:30:26.195Z,13.60
2023-02-19T21:32:54.446Z,13.57
2023-02-19T21:35:21.502Z,14.68
2023-02-19T21:37:48.557Z,14.38
2023-02-19T21:40:15.604Z,15.05
2023-02-19T21:42:42.619Z,16.80
2023-02-19T21:45:09.862Z,17.77
2023-02-19T21:47:36.846Z,17.48
2023-02-19T21:50:04.120Z,18.02
2023-02-19T21:52:31.510Z,20.63
2023-02-19T21:54:58.948Z,18.73
2023-02-19T21:57:25.881Z,17.17
2023-02-19T21:59:52.950Z,17.67
2023-02-19T22:02:22.195Z,17.40
2023-02-19T22:04:53.907Z,16.27
2023-02-19T22:07:22.438Z,18.03
2023-02-19T22:09:50.307Z,18.27
2023-02-19T22:12:18.549Z,17.17
2023-02-19T22:14:45.775Z,17.48
2023-02-19T22:17:12.805Z,18.02
2023-02-19T22:19:39.849Z,18.67
2023-02-19T22:22:07.072Z,19.17
2023-02-19T22:24:34.279Z,19.23
2023-02-19T22:27:01.439Z,20.65
2023-02-19T22:29:28.834Z,18.15
2023-02-19T22:31:56.281Z,16.60
2023-02-19T22:34:23.545Z,15.98
2023-02-19T22:36:50.484Z,15.60
2023-02-19T22:39:24.610Z,15.70
2023-02-19T22:41:52.169Z,16.65
2023-02-19T22:44:19.195Z,16.20
2023-02-19T22:46:51.594Z,16.92
2023-02-19T22:49:19.462Z,16.80
2023-02-19T22:51:52.299Z,15.85
2023-02-19T22:54:25.033Z,15.27
2023-02-19T22:56:53.254Z,15.60
2023-02-19T22:59:21.313Z,15.75
2023-02-19T23:01:49.968Z,16.02
2023-02-19T23:04:17.357Z,14.57
2023-02-19T23:06:45.963Z,16.42
2023-02-19T23:09:19.689Z,16.57
2023-02-19T23:11:47.187Z,16.52
2023-02-19T23:14:17.369Z,16.40
2023-02-19T23:16:44.668Z,16.95
2023-02-19T23:19:14.350Z,17.35
2023-02-19T23:21:43.300Z,17.80
2023-02-19T23:24:11.664Z,16.45
2023-02-19T23:26:47.047Z,16.15
2023-02-19T23:29:19.870Z,15.63
2023-02-19T23:31:47.541Z,16.33
2023-02-19T23:34:14.994Z,16.80
2023-02-19T23:36:48.496Z,16.10
2023-02-19T23:39:17.665Z,16.80
2023-02-19T23:41:50.548Z,16.98
2023-02-19T23:44:18.339Z,17.77
2023-02-19T23:46:45.523Z,17.47
2023-02-19T23:49:13.535Z,17.60
2023-02-19T23:51:40.989Z,19.20
2023-02-19T23:54:08.718Z,16.92
2023-02-19T23:56:35.967Z,19.02
2023-02-19T23:59:04.043Z,18.43
